Mohac — 3FOX4 — position and weather

sailwx.info

Track history (hours):
 
Tides and Currents Weather Stations Pressure Air Temp Water Temp Dewpoint Dewpoint Depression Visibility Wind Speed Wind Dir Waves Ship Positions

Mohac

Last reported at 2018-Feb-25 22:23 UTC. Time now 2018-Feb-26 03:06 UTC.
Position N 46°15' E 030°54'.

Length 135 m; draft 9 m.

Type: Cargo ship. MMSI: 372105000.

Date/timePositionNaut miles runAvg speedWind from/ knotsBaromVisibWave heightAir tempDewpointWater temp
2018-Feb-25 22:23N 46°15' E 030°54'410.8
2018-Feb-25 22:00N 46°19' E 030°55'611.9
2018-Feb-25 21:27N 46°26' E 030°55'511.6
2018-Feb-25 21:00N 46°31' E 030°55'510.2
2018-Feb-25 20:30N 46°34' E 031°02'21 9.1
2018-Feb-25 18:09N 46°35' E 031°33'3 8.8
2018-Feb-25 17:50N 46°35' E 031°37'3 8.7
2018-Feb-25 17:30N 46°36' E 031°41'4 8.9
2018-Feb-25 17:00N 46°36' E 031°47'4 8.6
2018-Feb-25 16:30N 46°37' E 031°53'4 7.9
2018-Feb-25 16:00N 46°41' E 031°56'4 7.7
2018-Feb-25 15:30N 46°45' E 031°54'4 8.0
2018-Feb-25 15:00N 46°48' E 031°54'5 9.2
2018-Feb-25 14:30N 46°52' E 031°58'4 8.2
2018-Feb-25 14:00N 46°55' E 032°01'1 2.4
2018-Feb-25 13:30N 46°57' E 032°01'0 0.0
2018-Feb-25 13:00N 46°57' E 032°01'0 0.0
2018-Feb-25 12:30N 46°57' E 032°01'0 0.0
2018-Feb-25 12:00N 46°57' E 032°01'0 0.0
2018-Feb-25 11:30N 46°57' E 032°01'0 0.0
2018-Feb-25 11:00N 46°57' E 032°01'0 0.0
2018-Feb-25 10:30N 46°57' E 032°01'0 0.0
2018-Feb-25 10:00N 46°57' E 032°01'0 0.0
2018-Feb-25 09:30N 46°57' E 032°01'0 0.0
2018-Feb-25 09:00N 46°57' E 032°01'0 0.0
2018-Feb-25 08:30N 46°57' E 032°01'0 0.0
2018-Feb-25 08:00N 46°57' E 032°01'0 0.0
2018-Feb-25 07:30N 46°57' E 032°01'0 0.0
2018-Feb-25 07:00N 46°57' E 032°01'0 0.0
2018-Feb-25 06:30N 46°57' E 032°01'0 0.0
2018-Feb-25 06:00N 46°57' E 032°01'0 0.0
2018-Feb-25 05:30N 46°57' E 032°01'0 0.0
2018-Feb-25 05:00N 46°57' E 032°01'0 0.0
2018-Feb-25 04:30N 46°57' E 032°01'0 0.0
2018-Feb-25 04:00N 46°57' E 032°01'0 0.0
2018-Feb-25 03:30N 46°57' E 032°01'0 0.0
2018-Feb-25 03:00N 46°57' E 032°01'0 0.0
2018-Feb-25 02:30N 46°57' E 032°01'0 0.0
2018-Feb-25 02:00N 46°57' E 032°01'0 0.0
2018-Feb-25 01:30N 46°57' E 032°01'0 0.0
2018-Feb-25 01:00N 46°57' E 032°01'0 0.0
2018-Feb-25 00:30N 46°57' E 032°01'0 0.0
2018-Feb-25 00:00N 46°57' E 032°01'0 0.0
2018-Feb-24 23:30N 46°57' E 032°01'0 0.0
2018-Feb-24 23:00N 46°57' E 032°01'0 0.0
2018-Feb-24 22:30N 46°57' E 032°01'0 0.0
2018-Feb-24 22:00N 46°57' E 032°01'0 0.0
2018-Feb-24 21:30N 46°57' E 032°01'0 0.0
2018-Feb-24 21:00N 46°57' E 032°01'0 0.0
2018-Feb-24 20:30N 46°57' E 032°01'0 0.0
2018-Feb-24 20:00N 46°57' E 032°01'0 0.0
2018-Feb-24 19:30N 46°57' E 032°01'0 0.0
2018-Feb-24 19:00N 46°57' E 032°01'0 0.0
2018-Feb-24 18:30N 46°57' E 032°01'0 0.0
2018-Feb-24 18:00N 46°57' E 032°01'0 0.0
2018-Feb-24 17:30N 46°57' E 032°01'0 0.0
2018-Feb-24 17:00N 46°57' E 032°01'0 0.0
2018-Feb-24 16:30N 46°57' E 032°01'0 0.0
2018-Feb-24 16:00N 46°57' E 032°01'0 0.0
2018-Feb-24 15:30N 46°57' E 032°01'0 0.0
2018-Feb-24 15:00N 46°57' E 032°01'0 0.0
2018-Feb-24 14:30N 46°57' E 032°01'0 0.0
2018-Feb-24 14:00N 46°57' E 032°01'0 0.0
2018-Feb-24 13:30N 46°57' E 032°01'0 0.0
2018-Feb-24 13:00N 46°57' E 032°01'0 0.0
2018-Feb-24 12:30N 46°57' E 032°01'0 0.0
2018-Feb-24 12:00N 46°57' E 032°01'0 0.0
2018-Feb-24 11:30N 46°57' E 032°01'0 0.0
2018-Feb-24 11:00N 46°57' E 032°01'0 0.0
2018-Feb-24 10:30N 46°57' E 032°01'0 0.0
2018-Feb-24 10:00N 46°57' E 032°01'0 0.0
2018-Feb-24 09:30N 46°57' E 032°01'0 0.0
2018-Feb-24 09:00N 46°57' E 032°01'0 0.0
2018-Feb-24 08:30N 46°57' E 032°01'0 0.0
2018-Feb-24 08:00N 46°57' E 032°01'0 0.0
2018-Feb-24 07:30N 46°57' E 032°01'0 0.0
2018-Feb-24 07:00N 46°57' E 032°01'0 0.0
2018-Feb-24 06:30N 46°57' E 032°01'0 0.0
2018-Feb-24 06:00N 46°57' E 032°01'0 0.0
2018-Feb-24 05:30N 46°57' E 032°01'0 0.0
2018-Feb-24 05:00N 46°57' E 032°01'0 0.0
2018-Feb-24 04:30N 46°57' E 032°01'0 0.0
2018-Feb-24 04:00N 46°57' E 032°01'0 0.0
2018-Feb-24 03:30N 46°57' E 032°01'0 0.0
2018-Feb-24 03:00N 46°57' E 032°01'0 0.0
2018-Feb-24 02:30N 46°57' E 032°01'0 0.0
2018-Feb-24 02:00N 46°57' E 032°01'0 0.0
2018-Feb-24 01:30N 46°57' E 032°01'0 0.0
2018-Feb-24 01:00N 46°57' E 032°01'0 0.0
2018-Feb-24 00:30N 46°57' E 032°01'0 0.0
2018-Feb-24 00:00N 46°57' E 032°01'0 0.0
2018-Feb-23 23:30N 46°57' E 032°01'0 0.0
2018-Feb-23 23:00N 46°57' E 032°01'0 0.0
2018-Feb-23 22:30N 46°57' E 032°01'0 0.0
2018-Feb-23 22:00N 46°57' E 032°01'0 0.0
2018-Feb-23 21:30N 46°57' E 032°01'0 0.0
2018-Feb-23 21:00N 46°57' E 032°01'0 0.0
2018-Feb-23 20:30N 46°57' E 032°01'0 0.0
2018-Feb-23 20:00N 46°57' E 032°01'0 0.0
2018-Feb-23 19:30N 46°57' E 032°01'0 0.0
2018-Feb-23 19:00N 46°57' E 032°01'0 0.0
2018-Feb-23 18:30N 46°57' E 032°01'0 0.0
2018-Feb-23 18:00N 46°57' E 032°01'0 0.0
2018-Feb-23 17:30N 46°57' E 032°01'0 0.0
2018-Feb-23 17:00N 46°57' E 032°01'0 0.0
2018-Feb-23 16:30N 46°57' E 032°01'0 0.0
2018-Feb-23 16:00N 46°57' E 032°01'0 0.0
2018-Feb-23 15:30N 46°57' E 032°01'0 0.0
2018-Feb-23 15:00N 46°57' E 032°01'0 0.0
2018-Feb-23 14:30N 46°57' E 032°01'0 0.0
2018-Feb-23 14:00N 46°57' E 032°01'0 0.0
2018-Feb-23 13:30N 46°57' E 032°01'0 0.0
2018-Feb-23 13:00N 46°57' E 032°01'0 0.0
2018-Feb-23 12:30N 46°57' E 032°01'0 0.0
2018-Feb-23 12:00N 46°57' E 032°01'0 0.0
2018-Feb-23 11:30N 46°57' E 032°01'0 0.1
2018-Feb-23 11:00N 46°57' E 032°01'1 1.4
2018-Feb-23 10:30N 46°56' E 031°60'0 0.0
2018-Feb-23 09:59N 46°56' E 031°60'0 0.0
2018-Feb-23 09:29N 46°56' E 031°60'0 0.0
2018-Feb-23 08:59N 46°56' E 031°60'0 0.0
2018-Feb-23 08:29N 46°56' E 031°60'0 0.0
2018-Feb-23 07:59N 46°56' E 031°60'0 0.0
2018-Feb-23 07:29N 46°56' E 031°60'0 0.0
2018-Feb-23 06:59N 46°56' E 031°60'0 0.0
2018-Feb-23 06:29N 46°56' E 031°60'0 0.0
2018-Feb-23 05:59N 46°56' E 031°60'0 0.1
2018-Feb-23 05:29N 46°56' E 031°60'1 2.4
2018-Feb-23 04:59N 46°56' E 032°01'4 8.1
2018-Feb-23 04:30N 46°52' E 031°59'510.2
2018-Feb-23 04:00N 46°48' E 031°54'5 9.3
2018-Feb-23 03:30N 46°44' E 031°56'5 9.8
2018-Feb-23 03:00N 46°39' E 031°56'510.1
2018-Feb-23 02:30N 46°36' E 031°49'510.0
2018-Feb-23 02:00N 46°36' E 031°42'510.0
2018-Feb-23 01:30N 46°35' E 031°35'5 8.9
2018-Feb-23 01:00N 46°36' E 031°28'1510.9
2018-Feb-22 23:34N 46°34' E 031°06'111.1
2018-Feb-22 23:30N 46°34' E 031°05'3 6.2
2018-Feb-22 23:00N 46°33' E 031°01'4 7.6
2018-Feb-22 22:30N 46°31' E 030°57'4 8.5
2018-Feb-22 22:00N 46°27' E 030°57'5 9.1
2018-Feb-22 21:29N 46°22' E 030°59'3 0.3
2018-Feb-22 13:48N 46°21' E 031°02'0 0.0
2018-Feb-22 03:45N 46°21' E 031°02'  
2018-Feb-19 09:29N 46°21' E 031°03'5 5.0
2018-Feb-19 08:24N 46°15' E 031°04'  
Track history (hours):
 
Tides and Currents Weather Stations Pressure Air Temp Water Temp Dewpoint Dewpoint Depression Visibility Wind Speed Wind Dir Waves Ship Positions

Mohac

Last reported at 2018-Feb-25 22:23 UTC. Time now 2018-Feb-26 03:06 UTC.
Position N 46°15' E 030°54'.

Length 135 m; draft 9 m.

Type: Cargo ship. MMSI: 372105000.

Date/timePositionNaut miles runAvg speedWind from/ knotsBaromVisibWave heightAir tempDewpointWater temp
2018-Feb-25 22:23N 46°15' E 030°54'410.8
2018-Feb-25 22:00N 46°19' E 030°55'611.9
2018-Feb-25 21:27N 46°26' E 030°55'511.6
2018-Feb-25 21:00N 46°31' E 030°55'510.2
2018-Feb-25 20:30N 46°34' E 031°02'21 9.1
2018-Feb-25 18:09N 46°35' E 031°33'3 8.8
2018-Feb-25 17:50N 46°35' E 031°37'3 8.7
2018-Feb-25 17:30N 46°36' E 031°41'4 8.9
2018-Feb-25 17:00N 46°36' E 031°47'4 8.6
2018-Feb-25 16:30N 46°37' E 031°53'4 7.9
2018-Feb-25 16:00N 46°41' E 031°56'4 7.7
2018-Feb-25 15:30N 46°45' E 031°54'4 8.0
2018-Feb-25 15:00N 46°48' E 031°54'5 9.2
2018-Feb-25 14:30N 46°52' E 031°58'4 8.2
2018-Feb-25 14:00N 46°55' E 032°01'1 2.4
2018-Feb-25 13:30N 46°57' E 032°01'0 0.0
2018-Feb-25 13:00N 46°57' E 032°01'0 0.0
2018-Feb-25 12:30N 46°57' E 032°01'0 0.0
2018-Feb-25 12:00N 46°57' E 032°01'0 0.0
2018-Feb-25 11:30N 46°57' E 032°01'0 0.0
2018-Feb-25 11:00N 46°57' E 032°01'0 0.0
2018-Feb-25 10:30N 46°57' E 032°01'0 0.0
2018-Feb-25 10:00N 46°57' E 032°01'0 0.0
2018-Feb-25 09:30N 46°57' E 032°01'0 0.0
2018-Feb-25 09:00N 46°57' E 032°01'0 0.0
2018-Feb-25 08:30N 46°57' E 032°01'0 0.0
2018-Feb-25 08:00N 46°57' E 032°01'0 0.0
2018-Feb-25 07:30N 46°57' E 032°01'0 0.0
2018-Feb-25 07:00N 46°57' E 032°01'0 0.0
2018-Feb-25 06:30N 46°57' E 032°01'0 0.0
2018-Feb-25 06:00N 46°57' E 032°01'0 0.0
2018-Feb-25 05:30N 46°57' E 032°01'0 0.0
2018-Feb-25 05:00N 46°57' E 032°01'0 0.0
2018-Feb-25 04:30N 46°57' E 032°01'0 0.0
2018-Feb-25 04:00N 46°57' E 032°01'0 0.0
2018-Feb-25 03:30N 46°57' E 032°01'0 0.0
2018-Feb-25 03:00N 46°57' E 032°01'0 0.0
2018-Feb-25 02:30N 46°57' E 032°01'0 0.0
2018-Feb-25 02:00N 46°57' E 032°01'0 0.0
2018-Feb-25 01:30N 46°57' E 032°01'0 0.0
2018-Feb-25 01:00N 46°57' E 032°01'0 0.0
2018-Feb-25 00:30N 46°57' E 032°01'0 0.0
2018-Feb-25 00:00N 46°57' E 032°01'0 0.0
2018-Feb-24 23:30N 46°57' E 032°01'0 0.0
2018-Feb-24 23:00N 46°57' E 032°01'0 0.0
2018-Feb-24 22:30N 46°57' E 032°01'0 0.0
2018-Feb-24 22:00N 46°57' E 032°01'0 0.0
2018-Feb-24 21:30N 46°57' E 032°01'0 0.0
2018-Feb-24 21:00N 46°57' E 032°01'0 0.0
2018-Feb-24 20:30N 46°57' E 032°01'0 0.0
2018-Feb-24 20:00N 46°57' E 032°01'0 0.0
2018-Feb-24 19:30N 46°57' E 032°01'0 0.0
2018-Feb-24 19:00N 46°57' E 032°01'0 0.0
2018-Feb-24 18:30N 46°57' E 032°01'0 0.0
2018-Feb-24 18:00N 46°57' E 032°01'0 0.0
2018-Feb-24 17:30N 46°57' E 032°01'0 0.0
2018-Feb-24 17:00N 46°57' E 032°01'0 0.0
2018-Feb-24 16:30N 46°57' E 032°01'0 0.0
2018-Feb-24 16:00N 46°57' E 032°01'0 0.0
2018-Feb-24 15:30N 46°57' E 032°01'0 0.0
2018-Feb-24 15:00N 46°57' E 032°01'0 0.0
2018-Feb-24 14:30N 46°57' E 032°01'0 0.0
2018-Feb-24 14:00N 46°57' E 032°01'0 0.0
2018-Feb-24 13:30N 46°57' E 032°01'0 0.0
2018-Feb-24 13:00N 46°57' E 032°01'0 0.0
2018-Feb-24 12:30N 46°57' E 032°01'0 0.0
2018-Feb-24 12:00N 46°57' E 032°01'0 0.0
2018-Feb-24 11:30N 46°57' E 032°01'0 0.0
2018-Feb-24 11:00N 46°57' E 032°01'0 0.0
2018-Feb-24 10:30N 46°57' E 032°01'0 0.0
2018-Feb-24 10:00N 46°57' E 032°01'0 0.0
2018-Feb-24 09:30N 46°57' E 032°01'0 0.0
2018-Feb-24 09:00N 46°57' E 032°01'0 0.0
2018-Feb-24 08:30N 46°57' E 032°01'0 0.0
2018-Feb-24 08:00N 46°57' E 032°01'0 0.0
2018-Feb-24 07:30N 46°57' E 032°01'0 0.0
2018-Feb-24 07:00N 46°57' E 032°01'0 0.0
2018-Feb-24 06:30N 46°57' E 032°01'0 0.0
2018-Feb-24 06:00N 46°57' E 032°01'0 0.0
2018-Feb-24 05:30N 46°57' E 032°01'0 0.0
2018-Feb-24 05:00N 46°57' E 032°01'0 0.0
2018-Feb-24 04:30N 46°57' E 032°01'0 0.0
2018-Feb-24 04:00N 46°57' E 032°01'0 0.0
2018-Feb-24 03:30N 46°57' E 032°01'0 0.0
2018-Feb-24 03:00N 46°57' E 032°01'0 0.0
2018-Feb-24 02:30N 46°57' E 032°01'0 0.0
2018-Feb-24 02:00N 46°57' E 032°01'0 0.0
2018-Feb-24 01:30N 46°57' E 032°01'0 0.0
2018-Feb-24 01:00N 46°57' E 032°01'0 0.0
2018-Feb-24 00:30N 46°57' E 032°01'0 0.0
2018-Feb-24 00:00N 46°57' E 032°01'0 0.0
2018-Feb-23 23:30N 46°57' E 032°01'0 0.0
2018-Feb-23 23:00N 46°57' E 032°01'0 0.0
2018-Feb-23 22:30N 46°57' E 032°01'0 0.0
2018-Feb-23 22:00N 46°57' E 032°01'0 0.0
2018-Feb-23 21:30N 46°57' E 032°01'0 0.0
2018-Feb-23 21:00N 46°57' E 032°01'0 0.0
2018-Feb-23 20:30N 46°57' E 032°01'0 0.0
2018-Feb-23 20:00N 46°57' E 032°01'0 0.0
2018-Feb-23 19:30N 46°57' E 032°01'0 0.0
2018-Feb-23 19:00N 46°57' E 032°01'0 0.0
2018-Feb-23 18:30N 46°57' E 032°01'0 0.0
2018-Feb-23 18:00N 46°57' E 032°01'0 0.0
2018-Feb-23 17:30N 46°57' E 032°01'0 0.0
2018-Feb-23 17:00N 46°57' E 032°01'0 0.0
2018-Feb-23 16:30N 46°57' E 032°01'0 0.0
2018-Feb-23 16:00N 46°57' E 032°01'0 0.0
2018-Feb-23 15:30N 46°57' E 032°01'0 0.0
2018-Feb-23 15:00N 46°57' E 032°01'0 0.0
2018-Feb-23 14:30N 46°57' E 032°01'0 0.0
2018-Feb-23 14:00N 46°57' E 032°01'0 0.0
2018-Feb-23 13:30N 46°57' E 032°01'0 0.0
2018-Feb-23 13:00N 46°57' E 032°01'0 0.0
2018-Feb-23 12:30N 46°57' E 032°01'0 0.0
2018-Feb-23 12:00N 46°57' E 032°01'0 0.0
2018-Feb-23 11:30N 46°57' E 032°01'0 0.1
2018-Feb-23 11:00N 46°57' E 032°01'1 1.4
2018-Feb-23 10:30N 46°56' E 031°60'0 0.0
2018-Feb-23 09:59N 46°56' E 031°60'0 0.0
2018-Feb-23 09:29N 46°56' E 031°60'0 0.0
2018-Feb-23 08:59N 46°56' E 031°60'0 0.0
2018-Feb-23 08:29N 46°56' E 031°60'0 0.0
2018-Feb-23 07:59N 46°56' E 031°60'0 0.0
2018-Feb-23 07:29N 46°56' E 031°60'0 0.0
2018-Feb-23 06:59N 46°56' E 031°60'0 0.0
2018-Feb-23 06:29N 46°56' E 031°60'0 0.0
2018-Feb-23 05:59N 46°56' E 031°60'0 0.1
2018-Feb-23 05:29N 46°56' E 031°60'1 2.4
2018-Feb-23 04:59N 46°56' E 032°01'4 8.1
2018-Feb-23 04:30N 46°52' E 031°59'510.2
2018-Feb-23 04:00N 46°48' E 031°54'5 9.3
2018-Feb-23 03:30N 46°44' E 031°56'5 9.8
2018-Feb-23 03:00N 46°39' E 031°56'510.1
2018-Feb-23 02:30N 46°36' E 031°49'510.0
2018-Feb-23 02:00N 46°36' E 031°42'510.0
2018-Feb-23 01:30N 46°35' E 031°35'5 8.9
2018-Feb-23 01:00N 46°36' E 031°28'1510.9
2018-Feb-22 23:34N 46°34' E 031°06'111.1
2018-Feb-22 23:30N 46°34' E 031°05'3 6.2
2018-Feb-22 23:00N 46°33' E 031°01'4 7.6
2018-Feb-22 22:30N 46°31' E 030°57'4 8.5
2018-Feb-22 22:00N 46°27' E 030°57'5 9.1
2018-Feb-22 21:29N 46°22' E 030°59'3 0.3
2018-Feb-22 13:48N 46°21' E 031°02'0 0.0
2018-Feb-22 03:45N 46°21' E 031°02'  
2018-Feb-19 09:29N 46°21' E 031°03'5 5.0
2018-Feb-19 08:24N 46°15' E 031°04'  

Dump ship's entire track history